createdAt,value
2022-08-03T00:01:19.759Z,17.85
2022-08-03T00:04:02.807Z,17.83
2022-08-03T00:06:45.614Z,17.81
2022-08-03T00:09:28.340Z,17.78
2022-08-03T00:12:18.389Z,17.75
2022-08-03T00:15:01.237Z,17.70
2022-08-03T00:17:53.121Z,17.69
2022-08-03T00:20:36.905Z,17.68
2022-08-03T00:23:19.525Z,17.67
2022-08-03T00:26:02.956Z,17.66
2022-08-03T00:28:45.665Z,17.64
2022-08-03T00:31:51.407Z,17.62
2022-08-03T00:34:35.240Z,17.62
2022-08-03T00:37:40.851Z,17.61
2022-08-03T00:40:25.265Z,17.60
2022-08-03T00:43:09.206Z,17.59
2022-08-03T00:45:51.632Z,17.57
2022-08-03T00:48:35.686Z,17.55
2022-08-03T00:51:20.541Z,17.53
2022-08-03T00:54:03.467Z,17.49
2022-08-03T00:56:59.787Z,17.47
2022-08-03T00:59:43.208Z,17.44
2022-08-03T01:02:26.342Z,17.40
2022-08-03T01:05:11.282Z,17.38
2022-08-03T01:08:04.980Z,17.36
2022-08-03T01:11:17.182Z,17.33
2022-08-03T01:14:29.092Z,17.30
2022-08-03T01:17:29.821Z,17.27
2022-08-03T01:20:14.908Z,17.25
2022-08-03T01:23:06.412Z,17.24
2022-08-03T01:26:15.295Z,17.24
2022-08-03T01:29:08.513Z,17.23
2022-08-03T01:32:53.615Z,17.23
2022-08-03T01:35:12.168Z,17.22
2022-08-03T01:38:03.125Z,17.20
2022-08-03T01:40:48.240Z,17.18
2022-08-03T01:44:28.358Z,17.16
2022-08-03T01:46:35.304Z,17.14
2022-08-03T01:49:18.760Z,17.14
2022-08-03T01:52:05.480Z,17.11
2022-08-03T01:54:52.050Z,17.09
2022-08-03T01:58:05.163Z,17.08
2022-08-03T02:00:42.341Z,17.05
2022-08-03T02:03:25.834Z,17.05
2022-08-03T02:06:59.814Z,17.05
2022-08-03T02:09:16.876Z,17.06
2022-08-03T02:12:01.310Z,17.06
2022-08-03T02:14:46.337Z,17.07
2022-08-03T02:17:39.229Z,17.08
2022-08-03T02:20:27.199Z,17.07
2022-08-03T02:23:11.133Z,17.07
2022-08-03T02:26:00.123Z,17.06
2022-08-03T02:28:50.180Z,17.07
2022-08-03T02:31:38.426Z,17.09
2022-08-03T02:34:23.949Z,17.09
2022-08-03T02:37:09.036Z,17.11
2022-08-03T02:39:56.424Z,17.13
2022-08-03T02:42:45.072Z,17.13
2022-08-03T02:45:29.519Z,17.13
2022-08-03T02:48:13.445Z,17.12
2022-08-03T02:51:00.142Z,17.12
2022-08-03T02:53:50.001Z,17.10
2022-08-03T02:56:34.640Z,17.10
2022-08-03T02:59:19.370Z,17.10
2022-08-03T03:02:04.050Z,17.11
2022-08-03T03:05:52.758Z,17.11
2022-08-03T03:07:51.812Z,17.11
2022-08-03T03:10:39.902Z,17.11
2022-08-03T03:13:23.661Z,17.11
2022-08-03T03:16:06.856Z,17.12
2022-08-03T03:18:50.735Z,17.13
2022-08-03T03:21:34.564Z,17.14
2022-08-03T03:24:17.978Z,17.14
2022-08-03T03:27:01.500Z,17.14
2022-08-03T03:29:45.076Z,17.13
2022-08-03T03:32:29.731Z,17.14
2022-08-03T03:35:14.382Z,17.15
2022-08-03T03:37:57.867Z,17.17
2022-08-03T03:40:40.850Z,17.18
2022-08-03T03:43:24.780Z,17.21
2022-08-03T03:46:08.123Z,17.23
2022-08-03T03:48:51.138Z,17.25
2022-08-03T03:51:37.104Z,17.27
2022-08-03T03:54:20.168Z,17.29
2022-08-03T03:57:04.192Z,17.29
2022-08-03T03:59:47.024Z,17.30
2022-08-03T04:02:30.355Z,17.30
2022-08-03T04:05:33.158Z,17.31
2022-08-03T04:08:37.562Z,17.35
2022-08-03T04:11:42.051Z,17.48
2022-08-03T04:14:32.812Z,17.64
2022-08-03T04:17:16.008Z,17.76
2022-08-03T04:20:01.739Z,17.85
2022-08-03T04:22:43.867Z,17.93
2022-08-03T04:25:30.373Z,18.02
2022-08-03T04:28:29.423Z,18.10
2022-08-03T04:31:16.327Z,18.19
2022-08-03T04:34:00.470Z,18.22
2022-08-03T04:36:50.964Z,18.24
2022-08-03T04:39:34.052Z,18.27
2022-08-03T04:42:16.866Z,18.31
2022-08-03T04:45:01.651Z,18.34
2022-08-03T04:47:45.780Z,18.38
2022-08-03T04:50:28.393Z,18.42
2022-08-03T04:53:19.529Z,18.46
2022-08-03T04:56:06.213Z,18.48
2022-08-03T04:58:48.211Z,18.55
2022-08-03T05:01:32.440Z,18.65
2022-08-03T05:04:23.700Z,18.78
2022-08-03T05:07:11.616Z,18.91
2022-08-03T05:09:57.578Z,18.99
2022-08-03T05:12:46.315Z,19.06
2022-08-03T05:15:28.473Z,19.12
2022-08-03T05:18:14.102Z,19.22
2022-08-03T05:20:56.350Z,19.29
2022-08-03T05:23:38.247Z,19.36
2022-08-03T05:26:20.346Z,19.47
2022-08-03T05:29:02.188Z,19.60
2022-08-03T05:31:44.139Z,19.75
2022-08-03T05:34:25.977Z,19.91
2022-08-03T05:37:07.966Z,20.04
2022-08-03T05:39:49.825Z,20.08
2022-08-03T05:42:31.925Z,20.17
2022-08-03T05:45:18.839Z,20.32
2022-08-03T05:48:00.892Z,20.53
2022-08-03T05:50:43.071Z,20.74
2022-08-03T05:53:25.140Z,20.89
2022-08-03T05:56:13.875Z,20.90
2022-08-03T05:58:57.329Z,20.91
2022-08-03T06:01:39.390Z,20.87
2022-08-03T06:04:21.432Z,20.81
2022-08-03T06:07:03.731Z,20.88
2022-08-03T06:10:35.078Z,21.09
2022-08-03T06:12:49.642Z,21.35
2022-08-03T06:15:33.587Z,21.60
2022-08-03T06:18:15.485Z,21.80
2022-08-03T06:20:57.377Z,21.95
2022-08-03T06:23:53.926Z,22.13
2022-08-03T06:26:37.563Z,22.37
2022-08-03T06:29:19.451Z,22.54
2022-08-03T06:32:01.449Z,22.62
2022-08-03T06:34:43.343Z,22.77
2022-08-03T06:37:25.341Z,23.02
2022-08-03T06:40:07.898Z,23.26
2022-08-03T06:42:49.747Z,23.52
2022-08-03T06:45:34.251Z,23.74
2022-08-03T06:48:16.406Z,24.00
2022-08-03T06:50:58.301Z,24.33
2022-08-03T06:53:40.607Z,24.60
2022-08-03T06:56:22.503Z,24.86
2022-08-03T06:59:04.401Z,24.93
2022-08-03T07:01:46.321Z,24.97
2022-08-03T07:04:28.291Z,24.93
2022-08-03T07:07:10.132Z,24.86
2022-08-03T07:09:57.154Z,24.72
2022-08-03T07:12:55.698Z,24.54
2022-08-03T07:15:55.857Z,24.41
2022-08-03T07:18:39.857Z,24.69
2022-08-03T07:21:21.959Z,25.06
2022-08-03T07:24:04.366Z,25.38
2022-08-03T07:26:46.568Z,25.70
2022-08-03T07:29:30.410Z,26.02
2022-08-03T07:32:17.389Z,26.32
2022-08-03T07:35:01.149Z,26.56
2022-08-03T07:37:53.043Z,26.72
2022-08-03T07:40:36.731Z,26.97
2022-08-03T07:43:18.576Z,27.14
2022-08-03T07:46:00.524Z,27.24
2022-08-03T07:48:43.546Z,27.37
2022-08-03T07:51:25.853Z,27.47
2022-08-03T07:54:10.716Z,27.70
2022-08-03T07:56:52.723Z,27.93
2022-08-03T07:59:57.214Z,28.08
2022-08-03T08:02:38.220Z,28.26
2022-08-03T08:05:20.408Z,28.38
2022-08-03T08:08:03.749Z,28.54
2022-08-03T08:10:58.001Z,28.56
2022-08-03T08:13:40.748Z,28.61
2022-08-03T08:16:22.850Z,28.61
2022-08-03T08:19:06.177Z,28.73
2022-08-03T08:21:54.046Z,28.80
2022-08-03T08:24:45.125Z,28.85
2022-08-03T08:27:27.486Z,28.87
2022-08-03T08:30:12.270Z,29.06
2022-08-03T08:32:55.880Z,29.20
2022-08-03T08:35:37.929Z,29.41
2022-08-03T08:38:22.079Z,29.47
2022-08-03T08:41:04.233Z,29.38
2022-08-03T08:43:46.281Z,29.36
2022-08-03T08:46:32.374Z,29.44
2022-08-03T08:49:18.932Z,29.47
2022-08-03T08:52:04.163Z,29.63
2022-08-03T08:55:08.493Z,29.64
2022-08-03T08:57:59.285Z,29.54
2022-08-03T09:00:41.788Z,29.49
2022-08-03T09:03:29.949Z,29.56
2022-08-03T09:06:13.874Z,29.76
2022-08-03T09:08:55.873Z,29.83
2022-08-03T09:11:57.744Z,29.90
2022-08-03T09:14:54.800Z,30.06
2022-08-03T09:17:41.803Z,30.25
2022-08-03T09:20:25.439Z,30.34
2022-08-03T09:23:51.687Z,30.38
2022-08-03T09:26:12.168Z,30.59
2022-08-03T09:29:09.350Z,30.74
2022-08-03T09:32:02.937Z,30.80
2022-08-03T09:34:44.787Z,30.83
2022-08-03T09:38:11.859Z,30.90
2022-08-03T09:40:36.628Z,30.94
2022-08-03T09:43:18.943Z,31.01
2022-08-03T09:46:05.553Z,31.05
2022-08-03T09:48:47.443Z,31.05
2022-08-03T09:51:33.369Z,31.03
2022-08-03T09:54:32.828Z,31.11
2022-08-03T09:57:26.205Z,31.06
2022-08-03T10:00:12.398Z,31.06
2022-08-03T10:03:04.872Z,31.09
2022-08-03T10:05:47.048Z,30.97
2022-08-03T10:08:29.047Z,31.02
2022-08-03T10:11:10.947Z,31.12
2022-08-03T10:13:57.992Z,31.18
2022-08-03T10:16:43.848Z,31.18
2022-08-03T10:19:26.050Z,31.17
2022-08-03T10:22:12.792Z,31.17
2022-08-03T10:25:00.491Z,31.17
2022-08-03T10:27:47.654Z,31.29
2022-08-03T10:30:32.220Z,31.37
2022-08-03T10:33:51.040Z,31.43
2022-08-03T10:36:37.028Z,31.42
2022-08-03T10:39:22.504Z,31.41
2022-08-03T10:42:06.268Z,31.57
2022-08-03T10:45:04.418Z,31.65
2022-08-03T10:47:51.749Z,31.60
2022-08-03T10:50:35.482Z,31.60
2022-08-03T10:53:35.746Z,31.64
2022-08-03T10:56:51.961Z,31.74
2022-08-03T10:59:45.991Z,31.76
2022-08-03T11:03:06.836Z,31.75
2022-08-03T11:05:49.565Z,31.82
2022-08-03T11:08:35.065Z,31.78
2022-08-03T11:11:20.163Z,31.66
2022-08-03T11:14:20.285Z,31.70
2022-08-03T11:17:14.377Z,31.66
2022-08-03T11:19:58.456Z,31.41
2022-08-03T11:22:49.217Z,31.40
2022-08-03T11:26:09.951Z,31.53
2022-08-03T11:28:51.922Z,31.64
2022-08-03T11:31:49.450Z,31.74
2022-08-03T11:34:31.996Z,31.80
2022-08-03T11:37:29.987Z,31.83
2022-08-03T11:40:33.577Z,31.80
2022-08-03T11:43:31.599Z,31.77
2022-08-03T11:46:29.483Z,31.86
2022-08-03T11:49:12.179Z,31.97
2022-08-03T11:51:55.176Z,32.06
2022-08-03T11:54:37.356Z,32.12
2022-08-03T11:59:15.277Z,32.14
2022-08-03T12:00:35.350Z,32.23
2022-08-03T12:03:19.367Z,32.18
2022-08-03T12:06:02.624Z,32.04
2022-08-03T12:08:46.975Z,31.98
2022-08-03T12:11:30.816Z,31.85
2022-08-03T12:14:49.909Z,31.76
2022-08-03T12:17:19.643Z,31.71
2022-08-03T12:20:02.870Z,31.68
2022-08-03T12:22:44.820Z,31.67
2022-08-03T12:25:38.907Z,31.73
2022-08-03T12:28:28.346Z,31.74
2022-08-03T12:31:19.794Z,31.52
2022-08-03T12:34:04.575Z,31.41
2022-08-03T12:36:56.388Z,31.37
2022-08-03T12:39:38.690Z,31.34
2022-08-03T12:42:41.279Z,31.28
2022-08-03T12:45:30.509Z,31.21
2022-08-03T12:48:12.435Z,31.17
2022-08-03T12:51:09.253Z,31.23
2022-08-03T12:53:55.773Z,31.37
2022-08-03T12:57:06.970Z,31.42
2022-08-03T12:59:52.904Z,31.40
2022-08-03T13:02:36.022Z,31.36
2022-08-03T13:05:19.823Z,31.36
2022-08-03T13:08:01.718Z,31.38
2022-08-03T13:10:43.922Z,31.40
2022-08-03T13:13:39.548Z,31.39
2022-08-03T13:16:22.997Z,31.34
2022-08-03T13:19:04.866Z,31.28
2022-08-03T13:22:01.690Z,31.30
2022-08-03T13:24:48.331Z,31.28
2022-08-03T13:28:04.149Z,31.27
2022-08-03T13:30:33.308Z,31.23
2022-08-03T13:33:15.203Z,31.19
2022-08-03T13:35:57.511Z,31.13
2022-08-03T13:38:39.477Z,31.07
2022-08-03T13:41:22.530Z,31.00
2022-08-03T13:44:28.919Z,30.89
2022-08-03T13:47:11.961Z,30.79
2022-08-03T13:50:01.211Z,30.70
2022-08-03T13:52:46.464Z,30.60
2022-08-03T13:55:28.565Z,30.60
2022-08-03T13:58:12.776Z,30.62
2022-08-03T14:00:54.815Z,30.69
2022-08-03T14:03:36.709Z,30.73
2022-08-03T14:06:19.323Z,30.74
2022-08-03T14:09:01.225Z,30.76
2022-08-03T14:12:06.997Z,30.79
2022-08-03T14:14:46.207Z,30.86
2022-08-03T14:17:28.204Z,30.89
2022-08-03T14:20:36.700Z,30.92
2022-08-03T14:23:19.541Z,30.87
2022-08-03T14:26:01.438Z,30.79
2022-08-03T14:28:43.337Z,30.73
2022-08-03T14:32:11.362Z,30.65
2022-08-03T14:34:27.377Z,30.56
2022-08-03T14:37:09.401Z,30.58
2022-08-03T14:40:00.526Z,30.61
2022-08-03T14:42:42.714Z,30.63
2022-08-03T14:45:24.711Z,30.60
2022-08-03T14:50:32.161Z,30.57
2022-08-03T14:51:08.925Z,30.52
2022-08-03T14:53:50.723Z,30.48
2022-08-03T14:56:32.676Z,30.44
2022-08-03T14:59:14.569Z,30.42
2022-08-03T15:02:04.925Z,30.45
2022-08-03T15:04:49.623Z,30.46
2022-08-03T15:07:31.622Z,30.47
2022-08-03T15:10:13.620Z,30.51
2022-08-03T15:12:55.825Z,30.52
2022-08-03T15:15:37.666Z,30.52
2022-08-03T15:18:21.887Z,30.49
2022-08-03T15:21:05.504Z,30.45
2022-08-03T15:23:48.363Z,30.45
2022-08-03T15:26:36.577Z,30.46
2022-08-03T15:30:06.176Z,30.48
2022-08-03T15:32:24.728Z,30.48
2022-08-03T15:35:08.468Z,30.45
2022-08-03T15:37:51.285Z,30.41
2022-08-03T15:40:33.542Z,30.36
2022-08-03T15:43:15.862Z,30.31
2022-08-03T15:46:27.695Z,30.29
2022-08-03T15:49:00.886Z,30.26
2022-08-03T15:51:42.780Z,30.24
2022-08-03T15:54:24.729Z,30.22
2022-08-03T15:57:07.595Z,30.21
2022-08-03T15:59:49.436Z,30.19
2022-08-03T16:02:31.386Z,30.17
2022-08-03T16:05:13.181Z,30.13
2022-08-03T16:08:02.655Z,30.09
2022-08-03T16:10:48.079Z,30.04
2022-08-03T16:14:13.820Z,30.00
2022-08-03T16:16:32.716Z,29.97
2022-08-03T16:19:15.223Z,29.93
2022-08-03T16:21:57.117Z,29.91
2022-08-03T16:24:39.731Z,29.87
2022-08-03T16:27:37.156Z,29.82
2022-08-03T16:30:25.539Z,29.77
2022-08-03T16:33:07.638Z,29.71
2022-08-03T16:35:49.944Z,29.63
2022-08-03T16:38:31.956Z,29.55
2022-08-03T16:41:13.841Z,29.47
2022-08-03T16:43:55.938Z,29.37
2022-08-03T16:46:38.142Z,29.28
2022-08-03T16:49:54.564Z,29.18
2022-08-03T16:52:22.901Z,29.10
2022-08-03T16:55:06.837Z,29.02
2022-08-03T16:57:58.714Z,28.95
2022-08-03T17:00:43.265Z,28.89
2022-08-03T17:03:42.752Z,28.84
2022-08-03T17:06:45.180Z,28.78
2022-08-03T17:09:29.544Z,28.73
2022-08-03T17:12:20.608Z,28.72
2022-08-03T17:15:03.320Z,28.71
2022-08-03T17:18:01.932Z,28.71
2022-08-03T17:20:47.164Z,28.68
2022-08-03T17:23:46.318Z,28.67
2022-08-03T17:26:30.611Z,28.65
2022-08-03T17:29:14.572Z,28.65
2022-08-03T17:31:57.545Z,28.64
2022-08-03T17:34:44.784Z,28.62
2022-08-03T17:37:57.698Z,28.58
2022-08-03T17:40:31.128Z,28.52
2022-08-03T17:44:12.815Z,28.47
2022-08-03T17:46:23.039Z,28.40
2022-08-03T17:49:05.706Z,28.36
2022-08-03T17:52:32.804Z,28.29
2022-08-03T17:55:57.093Z,28.21
2022-08-03T17:58:55.739Z,28.13
2022-08-03T18:02:18.547Z,28.05
2022-08-03T18:08:17.252Z,27.85
2022-08-03T18:11:14.815Z,27.77
2022-08-03T18:14:15.948Z,27.67
2022-08-03T18:17:06.545Z,27.56
2022-08-03T18:20:03.657Z,27.46
2022-08-03T18:22:53.676Z,27.34
2022-08-03T18:25:45.337Z,27.20
2022-08-03T18:28:31.472Z,27.06
2022-08-03T18:32:00.175Z,26.94
2022-08-03T18:34:33.241Z,26.79
2022-08-03T18:37:19.486Z,26.66
2022-08-03T18:40:07.370Z,26.53
2022-08-03T18:42:52.890Z,26.40
2022-08-03T18:45:57.810Z,26.29
2022-08-03T18:48:53.217Z,26.18
2022-08-03T18:51:43.243Z,26.10
2022-08-03T18:54:47.061Z,26.02
2022-08-03T18:57:46.454Z,25.96
2022-08-03T19:00:42.585Z,25.90
2022-08-03T19:03:41.593Z,25.83
2022-08-03T19:06:28.968Z,25.77
2022-08-03T19:09:28.325Z,25.71
2022-08-03T19:12:30.940Z,25.64
2022-08-03T19:15:36.160Z,25.57
2022-08-03T19:18:20.961Z,25.51
2022-08-03T19:21:12.837Z,25.48
2022-08-03T19:24:07.905Z,25.43
2022-08-03T19:26:55.989Z,25.37
2022-08-03T19:29:58.579Z,25.32
2022-08-03T19:32:48.373Z,25.23
2022-08-03T19:35:51.611Z,25.16
2022-08-03T19:38:32.774Z,25.06
2022-08-03T19:41:17.877Z,24.98
2022-08-03T19:44:04.480Z,24.90
2022-08-03T19:46:55.481Z,24.83
2022-08-03T19:52:47.608Z,24.68
2022-08-03T19:55:32.357Z,24.62
2022-08-03T19:58:17.639Z,24.56
2022-08-03T20:01:19.534Z,24.50
2022-08-03T20:04:03.460Z,24.45
2022-08-03T20:06:47.846Z,24.40
2022-08-03T20:09:34.522Z,24.35
2022-08-03T20:12:17.575Z,24.29
2022-08-03T20:15:09.337Z,24.23
2022-08-03T20:17:55.415Z,24.19
2022-08-03T20:20:40.128Z,24.15
2022-08-03T20:23:27.246Z,24.11
2022-08-03T20:26:20.508Z,24.07
2022-08-03T20:29:10.015Z,24.00
2022-08-03T20:31:52.286Z,23.92
2022-08-03T20:34:34.185Z,23.86
2022-08-03T20:37:17.205Z,23.79
2022-08-03T20:40:00.437Z,23.73
2022-08-03T20:42:42.636Z,23.65
2022-08-03T20:45:58.582Z,23.61
2022-08-03T20:48:27.057Z,23.56
2022-08-03T20:51:20.214Z,23.50
2022-08-03T20:54:22.991Z,23.45
2022-08-03T20:57:11.608Z,23.40
2022-08-03T20:59:55.758Z,23.37
2022-08-03T21:02:38.511Z,23.36
2022-08-03T21:05:47.735Z,23.34
2022-08-03T21:08:26.230Z,23.32
2022-08-03T21:11:15.809Z,23.29
2022-08-03T21:12:56.493Z,27.95
2022-08-03T21:13:11.193Z,24.76
2022-08-03T21:14:01.950Z,23.27
2022-08-03T21:16:48.308Z,23.24
2022-08-03T21:19:32.115Z,23.20
2022-08-03T21:22:15.955Z,23.16
2022-08-03T21:25:00.137Z,23.09
2022-08-03T21:27:42.185Z,23.04
2022-08-03T21:30:26.682Z,22.99
2022-08-03T21:33:08.785Z,22.91
2022-08-03T21:35:51.398Z,22.84
2022-08-03T21:38:36.384Z,22.77
2022-08-03T21:41:19.435Z,22.72
2022-08-03T21:44:05.154Z,22.67
2022-08-03T21:46:50.247Z,22.62
2022-08-03T21:50:05.268Z,22.57
2022-08-03T21:52:47.418Z,22.51
2022-08-03T21:55:31.260Z,22.46
2022-08-03T21:58:17.526Z,22.41
2022-08-03T22:00:59.812Z,22.34
2022-08-03T22:03:53.197Z,22.28
2022-08-03T22:06:36.457Z,22.22
2022-08-03T22:09:19.378Z,22.18
2022-08-03T22:12:01.274Z,22.14
2022-08-03T22:14:43.681Z,22.09
2022-08-03T22:17:54.527Z,22.03
2022-08-03T22:20:28.875Z,21.97
2022-08-03T22:23:11.587Z,21.92
2022-08-03T22:25:56.705Z,21.87
2022-08-03T22:28:39.169Z,21.82
2022-08-03T22:31:37.656Z,21.78
2022-08-03T22:34:26.848Z,21.74
2022-08-03T22:37:10.967Z,21.69
2022-08-03T22:39:54.960Z,21.68
2022-08-03T22:42:37.114Z,21.65
2022-08-03T22:46:07.036Z,21.61
2022-08-03T22:48:22.346Z,21.57
2022-08-03T22:51:05.551Z,21.55
2022-08-03T22:53:47.987Z,21.53
2022-08-03T22:56:29.940Z,21.53
2022-08-03T22:59:40.407Z,21.54
2022-08-03T23:02:23.336Z,21.54
2022-08-03T23:05:11.011Z,21.53
2022-08-03T23:08:12.614Z,21.51
2022-08-03T23:11:00.041Z,21.49
2022-08-03T23:13:42.941Z,21.48
2022-08-03T23:16:29.261Z,21.47
2022-08-03T23:19:17.365Z,21.46
2022-08-03T23:22:08.151Z,21.44
2022-08-03T23:25:11.525Z,21.43
2022-08-03T23:28:05.215Z,21.41
2022-08-03T23:30:51.491Z,21.39
2022-08-03T23:33:34.394Z,21.36
2022-08-03T23:36:31.198Z,21.35
2022-08-03T23:39:16.781Z,21.31
2022-08-03T23:42:00.051Z,21.28
2022-08-03T23:44:44.710Z,21.24
2022-08-03T23:47:46.323Z,21.20
2022-08-03T23:50:40.655Z,21.14
2022-08-03T23:53:31.976Z,21.11
2022-08-03T23:56:48.889Z,21.09
2022-08-03T23:59:51.881Z,21.06
